Time;durP1;ratioP1;P1;durP2;ratioP2;P2;SDS_P1;SDS_P2;PMS_P1;PMS_P2;Temp;Humidity;BMP_temperature;BMP_pressure;BME280_temperature;BME280_humidity;BME280_pressure;Samples;Min_cycle;Max_cycle;Signal;HPM_P1;HPM_P2
2022/11/02 00:00:39;;;;;;;;;;;12.30;99.90;;;;;;4947994;28;207868;-71
2022/11/02 00:03:05;;;;;;;;;;;12.30;99.90;;;;;;4998446;28;19922;-72
2022/11/02 00:05:31;;;;;;;;;;;12.20;99.90;;;;;;4951116;28;153385;-72
2022/11/02 00:07:57;;;;;;;;;;;12.10;99.90;;;;;;5002722;28;19921;-72
2022/11/02 00:10:23;;;;;;;;;;;12.00;99.90;;;;;;4951726;28;209615;-72
2022/11/02 00:12:49;;;;;;;;;;;11.90;99.90;;;;;;5000410;28;21222;-71
2022/11/02 00:15:15;;;;;;;;;;;11.90;99.90;;;;;;4957901;28;207504;-70
2022/11/02 00:17:43;;;;;;;;;;;11.90;99.90;;;;;;5003938;28;19929;-70
2022/11/02 00:20:11;;;;;;;;;;;11.90;99.90;;;;;;4957160;28;209527;-70
2022/11/02 00:22:37;;;;;;;;;;;11.90;99.90;;;;;;5003242;28;20309;-73
2022/11/02 00:25:05;;;;;;;;;;;11.80;99.90;;;;;;4959649;28;148003;-73
2022/11/02 00:27:31;;;;;;;;;;;11.90;99.90;;;;;;4985467;28;19918;-70
2022/11/02 00:29:58;;;;;;;;;;;11.80;99.90;;;;;;4963485;28;204977;-71
2022/11/02 00:32:24;;;;;;;;;;;11.70;99.90;;;;;;5024627;28;20399;-70
2022/11/02 00:34:50;;;;;;;;;;;11.60;99.90;;;;;;4955266;28;222718;-71
2022/11/02 00:37:16;;;;;;;;;;;11.50;99.90;;;;;;5021109;28;19921;-71
2022/11/02 00:39:42;;;;;;;;;;;11.40;99.90;;;;;;4968379;28;207216;-70
2022/11/02 00:42:08;;;;;;;;;;;11.30;99.90;;;;;;4973404;28;20023;-70
2022/11/02 00:44:35;;;;;;;;;;;11.20;99.90;;;;;;4995931;28;19925;-70
2022/11/02 00:47:00;;;;;;;;;;;11.10;99.90;;;;;;4971299;28;172367;-70
2022/11/02 00:49:26;;;;;;;;;;;11.00;99.90;;;;;;5007525;28;19936;-70
2022/11/02 00:51:52;;;;;;;;;;;10.90;99.90;;;;;;4938935;28;204376;-71
2022/11/02 00:54:18;;;;;;;;;;;10.90;99.90;;;;;;5002870;28;19921;-70
2022/11/02 00:56:44;;;;;;;;;;;10.80;99.90;;;;;;4945263;28;208856;-70
2022/11/02 00:59:10;;;;;;;;;;;10.80;99.90;;;;;;5005640;28;19951;-69
2022/11/02 01:01:36;;;;;;;;;;;10.70;99.90;;;;;;4957731;28;204995;-69
2022/11/02 01:04:03;;;;;;;;;;;10.70;99.90;;;;;;5006026;28;19921;-69
2022/11/02 01:06:29;;;;;;;;;;;10.60;99.90;;;;;;4972030;28;208449;-69
2022/11/02 01:08:55;;;;;;;;;;;10.60;99.90;;;;;;5010466;28;19921;-70
2022/11/02 01:11:22;;;;;;;;;;;10.60;99.90;;;;;;4965464;28;207752;-69
2022/11/02 01:13:51;;;;;;;;;;;10.60;99.90;;;;;;5004566;28;19932;-69
2022/11/02 01:16:17;;;;;;;;;;;10.60;99.90;;;;;;4967224;28;211628;-70
2022/11/02 01:18:43;;;;;;;;;;;10.60;99.90;;;;;;5007676;28;20224;-70
2022/11/02 01:21:09;;;;;;;;;;;10.60;99.90;;;;;;4960918;28;207574;-70
2022/11/02 01:23:36;;;;;;;;;;;10.60;99.90;;;;;;5005105;28;20235;-69
2022/11/02 01:26:05;;;;;;;;;;;10.60;99.90;;;;;;4953698;28;206092;-69
2022/11/02 01:28:31;;;;;;;;;;;10.60;99.90;;;;;;5004311;28;19944;-69
2022/11/02 01:30:57;;;;;;;;;;;10.60;99.90;;;;;;4956425;28;207547;-70
2022/11/02 01:33:24;;;;;;;;;;;10.60;99.90;;;;;;5007293;28;19925;-70
2022/11/02 01:35:50;;;;;;;;;;;10.60;99.90;;;;;;4942975;28;210972;-70
2022/11/02 01:38:16;;;;;;;;;;;10.50;99.90;;;;;;4996431;28;20342;-69
2022/11/02 01:40:42;;;;;;;;;;;10.50;99.90;;;;;;4956208;28;210493;-69
2022/11/02 01:43:21;;;;;;;;;;;10.50;99.90;;;;;;5011495;28;19924;-69
2022/11/02 01:45:47;;;;;;;;;;;10.50;99.90;;;;;;4955109;28;207463;-69
2022/11/02 01:48:14;;;;;;;;;;;10.50;99.90;;;;;;5000675;28;19928;-69
2022/11/02 01:50:40;;;;;;;;;;;10.50;99.90;;;;;;4958369;28;208141;-70
2022/11/02 01:53:06;;;;;;;;;;;10.50;99.90;;;;;;5014056;28;20663;-70
2022/11/02 01:55:33;;;;;;;;;;;10.60;99.90;;;;;;4959948;28;207786;-69
2022/11/02 01:58:05;;;;;;;;;;;10.60;99.90;;;;;;5016099;28;20293;-69
2022/11/02 02:00:32;;;;;;;;;;;10.70;99.90;;;;;;4962621;28;209261;-70
2022/11/02 02:03:15;;;;;;;;;;;10.70;99.90;;;;;;5017099;28;19924;-69
2022/11/02 02:05:42;;;;;;;;;;;10.80;99.90;;;;;;4940640;28;155696;-69
2022/11/02 02:08:18;;;;;;;;;;;10.80;99.90;;;;;;5185473;27;20306;-69
2022/11/02 02:10:44;;;;;;;;;;;11.00;99.90;;;;;;5109441;27;209847;-69
2022/11/02 02:13:11;;;;;;;;;;;11.00;99.90;;;;;;5120182;27;19954;-69
2022/11/02 02:15:49;;;;;;;;;;;11.00;99.90;;;;;;5069019;27;205006;-69
2022/11/02 02:18:38;;;;;;;;;;;11.00;99.90;;;;;;5121087;27;19923;-70
2022/11/02 02:21:07;;;;;;;;;;;11.00;99.90;;;;;;4990847;28;209607;-69
2022/11/02 02:23:53;;;;;;;;;;;11.10;99.90;;;;;;5035562;28;19928;-69
2022/11/02 02:26:28;;;;;;;;;;;11.20;99.90;;;;;;4992285;28;199447;-69
2022/11/02 02:28:54;;;;;;;;;;;11.20;99.90;;;;;;5038322;28;19929;-71
2022/11/02 02:31:38;;;;;;;;;;;11.20;99.90;;;;;;5006186;28;185120;-69
2022/11/02 02:34:18;;;;;;;;;;;11.20;99.90;;;;;;5064641;28;19932;-70
2022/11/02 02:36:44;;;;;;;;;;;11.20;99.90;;;;;;5009039;28;134189;-70
2022/11/02 02:39:29;;;;;;;;;;;11.10;99.90;;;;;;5058594;28;20463;-70
2022/11/02 02:42:04;;;;;;;;;;;11.10;99.90;;;;;;4993314;28;206240;-70
2022/11/02 02:44:35;;;;;;;;;;;11.10;99.90;;;;;;5065096;28;19920;-69
2022/11/02 02:47:07;;;;;;;;;;;11.10;99.90;;;;;;4992940;28;25418;-69
2022/11/02 02:49:53;;;;;;;;;;;11.20;99.90;;;;;;5060233;28;20499;-70
2022/11/02 02:52:20;;;;;;;;;;;11.10;99.90;;;;;;5007537;28;126312;-70
2022/11/02 02:54:46;;;;;;;;;;;11.10;99.90;;;;;;5010715;28;206371;-69
2022/11/02 02:57:14;;;;;;;;;;;11.20;99.90;;;;;;5053971;28;20617;-70
2022/11/02 02:59:44;;;;;;;;;;;11.20;99.90;;;;;;5106961;27;206575;-70
2022/11/02 03:02:17;;;;;;;;;;;11.20;99.90;;;;;;5049219;28;19927;-70
2022/11/02 03:04:43;;;;;;;;;;;11.20;99.90;;;;;;5086545;27;207665;-68
2022/11/02 03:07:12;;;;;;;;;;;11.20;99.90;;;;;;5110222;27;20408;-69
2022/11/02 03:09:48;;;;;;;;;;;11.10;99.90;;;;;;5105102;27;215551;-69
2022/11/02 03:12:29;;;;;;;;;;;11.00;99.90;;;;;;5054274;27;19930;-70
2022/11/02 03:15:01;;;;;;;;;;;11.00;99.90;;;;;;5080504;27;206831;-69
2022/11/02 03:17:33;;;;;;;;;;;10.90;99.90;;;;;;5138872;27;20285;-70
2022/11/02 03:20:04;;;;;;;;;;;10.80;99.90;;;;;;5073835;27;207403;-69
2022/11/02 03:22:45;;;;;;;;;;;10.80;99.90;;;;;;5119540;27;19924;-70
2022/11/02 03:25:26;;;;;;;;;;;10.80;99.90;;;;;;5060828;27;207706;-69
2022/11/02 03:27:55;;;;;;;;;;;10.80;99.90;;;;;;5124018;27;19923;-70
2022/11/02 03:30:22;;;;;;;;;;;10.70;99.90;;;;;;5073310;27;209752;-69
2022/11/02 03:33:08;;;;;;;;;;;10.70;99.90;;;;;;5121570;27;19923;-69
2022/11/02 03:35:37;;;;;;;;;;;10.70;99.90;;;;;;5073458;27;229606;-70
2022/11/02 03:38:09;;;;;;;;;;;10.60;99.90;;;;;;5127739;27;20394;-70
2022/11/02 03:40:39;;;;;;;;;;;10.60;99.90;;;;;;5070409;27;207487;-70
2022/11/02 03:43:06;;;;;;;;;;;10.60;99.90;;;;;;5126392;27;20300;-70
2022/11/02 03:45:35;;;;;;;;;;;10.60;99.90;;;;;;5058471;27;215742;-69
2022/11/02 03:48:04;;;;;;;;;;;10.70;99.90;;;;;;5115321;27;20388;-69
2022/11/02 03:50:31;;;;;;;;;;;10.70;99.90;;;;;;5075543;27;206724;-69
2022/11/02 03:53:06;;;;;;;;;;;10.70;99.90;;;;;;5123678;27;19919;-70
2022/11/02 03:55:35;;;;;;;;;;;10.70;99.90;;;;;;5069745;27;207297;-70
2022/11/02 03:58:01;;;;;;;;;;;10.70;99.90;;;;;;5113607;27;19920;-69
2022/11/02 04:00:29;;;;;;;;;;;10.70;99.90;;;;;;5051373;27;207457;-69
2022/11/02 04:02:58;;;;;;;;;;;10.80;99.90;;;;;;5083316;28;19924;-69
2022/11/02 04:05:28;;;;;;;;;;;10.80;99.90;;;;;;5048123;27;126878;-69
2022/11/02 04:14:36;;;;;;;;;;;10.70;99.90;;;;;;5045612;27;207033;-69
2022/11/02 04:16:16;;;;;;;;;;;10.70;99.90;;;;;;5033393;28;137262;-69
2022/11/02 04:21:27;;;;;;;;;;;10.70;99.90;;;;;;5055738;27;207396;-69
2022/11/02 04:26:38;;;;;;;;;;;10.70;99.90;;;;;;5070859;27;209609;-69
2022/11/02 04:29:04;;;;;;;;;;;10.70;99.90;;;;;;5106796;28;20687;-69
2022/11/02 04:31:30;;;;;;;;;;;10.70;99.90;;;;;;5039259;28;215602;-70
2022/11/02 04:34:00;;;;;;;;;;;10.70;99.90;;;;;;5110008;27;19928;-70
2022/11/02 04:36:28;;;;;;;;;;;10.70;99.90;;;;;;5054812;27;209956;-69
2022/11/02 04:38:53;;;;;;;;;;;10.70;99.90;;;;;;5107281;27;19930;-68
2022/11/02 04:44:19;;;;;;;;;;;10.70;99.90;;;;;;5049111;28;19924;-70
2022/11/02 04:46:44;;;;;;;;;;;10.70;99.90;;;;;;4990703;28;206336;-69
2022/11/02 04:49:11;;;;;;;;;;;10.70;99.90;;;;;;5062470;28;19928;-70
2022/11/02 04:51:39;;;;;;;;;;;10.70;99.90;;;;;;4998418;28;161568;-70
2022/11/02 04:54:05;;;;;;;;;;;10.60;99.90;;;;;;5064377;28;19924;-70
2022/11/02 04:56:31;;;;;;;;;;;10.60;99.90;;;;;;5006076;28;131330;-71
2022/11/02 04:58:57;;;;;;;;;;;10.60;99.90;;;;;;5060590;28;19920;-71
2022/11/02 05:01:25;;;;;;;;;;;10.60;99.90;;;;;;4978249;28;144119;-71
2022/11/02 05:03:51;;;;;;;;;;;10.50;99.90;;;;;;5063179;28;19931;-71
2022/11/02 05:06:18;;;;;;;;;;;10.50;99.90;;;;;;4975301;28;207174;-69
2022/11/02 05:08:44;;;;;;;;;;;10.50;99.90;;;;;;5056700;28;19924;-70
2022/11/02 05:11:11;;;;;;;;;;;10.50;99.90;;;;;;5010900;28;159062;-70
2022/11/02 05:13:37;;;;;;;;;;;10.50;99.90;;;;;;5059629;28;20348;-70
2022/11/02 05:16:04;;;;;;;;;;;10.50;99.90;;;;;;4999755;28;145063;-70
2022/11/02 05:18:30;;;;;;;;;;;10.50;99.90;;;;;;5056426;28;19931;-70
2022/11/02 05:20:56;;;;;;;;;;;10.40;99.90;;;;;;5054928;27;209431;-70
2022/11/02 05:23:23;;;;;;;;;;;10.40;99.90;;;;;;5101638;28;19924;-70
2022/11/02 05:25:56;;;;;;;;;;;10.40;99.90;;;;;;5062712;27;210719;-70
2022/11/02 05:28:23;;;;;;;;;;;10.40;99.90;;;;;;5111362;27;19920;-71
2022/11/02 05:30:49;;;;;;;;;;;10.40;99.90;;;;;;5059909;27;213615;-71
2022/11/02 05:33:15;;;;;;;;;;;10.40;99.90;;;;;;5111775;27;20431;-71
2022/11/02 05:35:41;;;;;;;;;;;10.40;99.90;;;;;;5052526;27;209307;-70
2022/11/02 05:38:07;;;;;;;;;;;10.40;99.90;;;;;;5106331;27;19931;-70
2022/11/02 05:40:36;;;;;;;;;;;10.50;99.90;;;;;;5059479;27;207150;-70
2022/11/02 05:43:02;;;;;;;;;;;10.40;99.90;;;;;;5108927;27;20403;-70
2022/11/02 05:45:29;;;;;;;;;;;10.40;99.90;;;;;;5059112;27;207436;-70
2022/11/02 05:47:55;;;;;;;;;;;10.40;99.90;;;;;;5112712;27;19927;-71
2022/11/02 05:50:20;;;;;;;;;;;10.40;99.90;;;;;;5057710;27;220246;-71
2022/11/02 05:52:47;;;;;;;;;;;10.50;99.90;;;;;;5093219;28;19955;-71
2022/11/02 05:55:13;;;;;;;;;;;10.50;99.90;;;;;;5048977;27;207253;-71
2022/11/02 05:57:39;;;;;;;;;;;10.50;99.90;;;;;;5095621;27;19927;-71
2022/11/02 06:00:05;;;;;;;;;;;10.50;99.90;;;;;;5042555;27;204382;-71
2022/11/02 06:02:35;;;;;;;;;;;10.50;99.90;;;;;;5101166;28;20388;-70
2022/11/02 06:05:01;;;;;;;;;;;10.50;99.90;;;;;;5030727;27;169510;-70
2022/11/02 06:07:27;;;;;;;;;;;10.50;99.90;;;;;;5089213;28;19931;-70
2022/11/02 06:09:53;;;;;;;;;;;10.50;99.90;;;;;;5049124;27;206764;-71
2022/11/02 06:12:19;;;;;;;;;;;10.50;99.90;;;;;;5090500;28;20034;-71
2022/11/02 06:14:45;;;;;;;;;;;10.40;99.90;;;;;;5055562;27;211878;-69
2022/11/02 06:17:11;;;;;;;;;;;10.40;99.90;;;;;;5100467;28;19972;-71
2022/11/02 06:19:37;;;;;;;;;;;10.40;99.90;;;;;;5085615;28;207265;-71
2022/11/02 06:22:03;;;;;;;;;;;10.50;99.90;;;;;;5066270;28;165456;-70
2022/11/02 06:24:29;;;;;;;;;;;10.50;99.90;;;;;;5103036;28;19968;-70
2022/11/02 06:26:55;;;;;;;;;;;10.50;99.90;;;;;;5064360;27;228098;-70
2022/11/02 06:29:21;;;;;;;;;;;10.50;99.90;;;;;;5104935;28;19946;-72
2022/11/02 06:31:47;;;;;;;;;;;10.60;99.90;;;;;;5038992;28;164610;-71
2022/11/02 06:34:12;;;;;;;;;;;10.60;99.90;;;;;;5105330;28;19963;-71
2022/11/02 06:36:38;;;;;;;;;;;10.60;99.90;;;;;;5031118;28;207677;-71
2022/11/02 06:39:04;;;;;;;;;;;10.60;99.90;;;;;;5103875;28;20254;-71
2022/11/02 06:41:30;;;;;;;;;;;10.60;99.90;;;;;;5048141;27;207924;-71
2022/11/02 06:43:56;;;;;;;;;;;10.60;99.90;;;;;;5103623;28;19924;-72
2022/11/02 06:46:22;;;;;;;;;;;10.60;99.90;;;;;;5038971;28;209609;-70
2022/11/02 06:48:48;;;;;;;;;;;10.60;99.90;;;;;;5105915;28;19923;-70
2022/11/02 06:51:14;;;;;;;;;;;10.60;99.90;;;;;;5038421;28;205723;-71
2022/11/02 06:53:40;;;;;;;;;;;10.60;99.90;;;;;;5106452;28;19928;-71
2022/11/02 06:56:06;;;;;;;;;;;10.60;99.90;;;;;;5039430;27;198171;-70
2022/11/02 06:58:32;;;;;;;;;;;10.60;99.90;;;;;;5106419;27;20281;-72
2022/11/02 07:00:59;;;;;;;;;;;10.60;99.90;;;;;;5070718;27;209156;-71
2022/11/02 07:03:25;;;;;;;;;;;10.70;99.90;;;;;;5114204;27;19923;-69
2022/11/02 07:05:51;;;;;;;;;;;10.70;99.90;;;;;;5057155;27;208974;-70
2022/11/02 07:08:17;;;;;;;;;;;10.70;99.90;;;;;;5104617;27;20487;-73
2022/11/02 07:10:43;;;;;;;;;;;10.70;99.90;;;;;;5054126;28;204752;-73
2022/11/02 07:13:09;;;;;;;;;;;10.70;99.90;;;;;;5087473;27;20430;-72
2022/11/02 07:15:35;;;;;;;;;;;10.70;99.90;;;;;;5058188;27;205210;-72
2022/11/02 07:18:01;;;;;;;;;;;10.70;99.90;;;;;;5099855;28;19959;-73
2022/11/02 07:20:29;;;;;;;;;;;10.70;99.90;;;;;;5053604;27;205988;-72
2022/11/02 07:22:56;;;;;;;;;;;10.70;99.90;;;;;;5098012;28;19924;-72
2022/11/02 07:25:22;;;;;;;;;;;10.70;99.90;;;;;;5049155;28;206984;-72
2022/11/02 07:27:48;;;;;;;;;;;10.70;99.90;;;;;;5097893;28;19923;-71
2022/11/02 07:30:14;;;;;;;;;;;10.70;99.90;;;;;;5057834;27;226984;-71
2022/11/02 07:32:40;;;;;;;;;;;10.70;99.90;;;;;;5118884;27;19920;-71
2022/11/02 07:35:07;;;;;;;;;;;10.70;99.90;;;;;;5062014;27;212719;-71
2022/11/02 07:37:34;;;;;;;;;;;10.70;99.90;;;;;;5094676;28;19924;-71
2022/11/02 07:39:59;;;;;;;;;;;10.70;99.90;;;;;;5055965;28;208113;-71
2022/11/02 07:42:25;;;;;;;;;;;10.70;99.90;;;;;;5120845;27;20297;-70
2022/11/02 07:44:51;;;;;;;;;;;10.70;99.90;;;;;;5058423;27;208250;-70
2022/11/02 07:47:17;;;;;;;;;;;10.70;99.90;;;;;;5093254;27;19930;-71
2022/11/02 07:49:43;;;;;;;;;;;10.70;99.90;;;;;;5079178;27;207540;-69
2022/11/02 07:52:09;;;;;;;;;;;10.80;99.90;;;;;;5105107;27;175892;-71
2022/11/02 07:54:35;;;;;;;;;;;10.70;99.90;;;;;;5098788;28;207365;-69
2022/11/02 07:57:01;;;;;;;;;;;10.80;99.90;;;;;;5056920;28;141489;-71
2022/11/02 07:59:27;;;;;;;;;;;10.70;99.90;;;;;;5091357;28;19998;-72
2022/11/02 08:01:53;;;;;;;;;;;10.70;99.90;;;;;;5050126;27;216523;-71
2022/11/02 08:04:18;;;;;;;;;;;10.70;99.90;;;;;;5107330;28;20286;-71
2022/11/02 08:06:44;;;;;;;;;;;10.70;99.90;;;;;;5049677;27;209341;-71
2022/11/02 08:09:11;;;;;;;;;;;10.80;99.90;;;;;;5106360;28;19935;-71
2022/11/02 08:11:37;;;;;;;;;;;10.90;99.90;;;;;;5055259;27;216184;-71
2022/11/02 08:14:03;;;;;;;;;;;10.90;99.90;;;;;;5108701;28;19927;-71
2022/11/02 08:16:29;;;;;;;;;;;11.00;99.90;;;;;;5057920;27;209006;-72
2022/11/02 08:18:57;;;;;;;;;;;11.10;99.90;;;;;;5108736;27;19935;-71
2022/11/02 08:21:24;;;;;;;;;;;11.10;99.90;;;;;;5031559;28;207341;-70
2022/11/02 08:23:50;;;;;;;;;;;11.30;99.90;;;;;;5104643;28;19924;-71
2022/11/02 08:26:16;;;;;;;;;;;11.30;99.90;;;;;;5049355;27;210479;-70
2022/11/02 08:28:42;;;;;;;;;;;11.30;99.90;;;;;;5107172;28;19923;-71
2022/11/02 08:31:11;;;;;;;;;;;11.40;99.90;;;;;;5062830;27;206687;-70
2022/11/02 08:33:37;;;;;;;;;;;11.40;99.90;;;;;;5106834;28;19944;-70
2022/11/02 08:36:03;;;;;;;;;;;11.40;99.90;;;;;;5046695;28;209655;-70
2022/11/02 08:38:30;;;;;;;;;;;11.40;99.90;;;;;;5106802;28;19927;-71
2022/11/02 08:40:56;;;;;;;;;;;11.40;99.90;;;;;;5049860;27;174874;-70
2022/11/02 08:43:22;;;;;;;;;;;11.50;99.90;;;;;;5105346;27;19957;-70
2022/11/02 08:45:48;;;;;;;;;;;11.40;99.90;;;;;;5034392;28;166164;-70
2022/11/02 08:48:14;;;;;;;;;;;11.40;99.90;;;;;;5085041;27;20384;-70
2022/11/02 08:50:40;;;;;;;;;;;11.40;99.90;;;;;;5054379;27;197622;-71
2022/11/02 08:53:06;;;;;;;;;;;11.40;99.90;;;;;;5084815;28;19945;-71
2022/11/02 08:55:32;;;;;;;;;;;11.50;99.90;;;;;;5042499;28;184510;-71
2022/11/02 08:57:58;;;;;;;;;;;11.60;99.90;;;;;;5086233;28;19924;-71
2022/11/02 09:00:26;;;;;;;;;;;11.70;99.90;;;;;;5048134;28;203957;-71
2022/11/02 09:03:03;;;;;;;;;;;11.70;99.90;;;;;;5068663;28;19924;-70
2022/11/02 09:05:30;;;;;;;;;;;11.70;99.90;;;;;;5015181;28;205504;-70
2022/11/02 09:07:57;;;;;;;;;;;11.80;99.90;;;;;;5083060;27;19931;-70
2022/11/02 09:10:24;;;;;;;;;;;11.80;99.90;;;;;;5064650;27;210236;-71
2022/11/02 09:12:50;;;;;;;;;;;11.80;99.90;;;;;;5107506;27;20497;-71
2022/11/02 09:15:16;;;;;;;;;;;11.80;99.90;;;;;;5046284;27;205958;-69
2022/11/02 09:17:44;;;;;;;;;;;11.90;99.90;;;;;;5113852;27;19931;-70
2022/11/02 09:20:10;;;;;;;;;;;11.90;99.90;;;;;;5053969;27;209180;-70
2022/11/02 09:22:36;;;;;;;;;;;11.90;99.90;;;;;;5107794;27;19930;-69
2022/11/02 09:25:02;;;;;;;;;;;11.90;99.90;;;;;;5052067;28;209559;-69
2022/11/02 09:27:28;;;;;;;;;;;11.90;99.90;;;;;;5103832;27;19923;-70
2022/11/02 09:29:54;;;;;;;;;;;12.00;99.90;;;;;;5056177;27;215067;-69
2022/11/02 09:32:20;;;;;;;;;;;12.00;99.90;;;;;;5105090;28;19924;-69
2022/11/02 09:34:49;;;;;;;;;;;12.00;99.90;;;;;;5059380;27;206988;-68
2022/11/02 09:37:15;;;;;;;;;;;12.00;99.90;;;;;;5069098;28;20511;-69
2022/11/02 09:39:41;;;;;;;;;;;12.00;99.90;;;;;;5083217;27;216431;-69
2022/11/02 09:42:16;;;;;;;;;;;12.10;99.90;;;;;;5046033;28;20639;-69
2022/11/02 09:44:48;;;;;;;;;;;12.10;99.90;;;;;;5076053;27;209694;-68
2022/11/02 09:47:14;;;;;;;;;;;12.10;99.90;;;;;;5066455;28;19924;-69
2022/11/02 09:49:42;;;;;;;;;;;12.10;99.90;;;;;;5093923;27;207623;-67
2022/11/02 09:52:12;;;;;;;;;;;12.20;99.90;;;;;;5079394;28;20573;-69
2022/11/02 09:54:44;;;;;;;;;;;12.20;99.90;;;;;;5090220;28;206042;-69
2022/11/02 09:57:15;;;;;;;;;;;12.20;99.90;;;;;;5062370;27;19934;-69
2022/11/02 09:59:41;;;;;;;;;;;12.20;99.90;;;;;;5099785;27;212720;-67
2022/11/02 10:02:10;;;;;;;;;;;12.30;99.90;;;;;;5047896;28;19919;-70
2022/11/02 10:04:48;;;;;;;;;;;12.40;99.90;;;;;;5097332;28;210892;-68
2022/11/02 10:07:19;;;;;;;;;;;12.50;99.90;;;;;;5057206;28;123493;-69
2022/11/02 10:09:57;;;;;;;;;;;12.60;99.90;;;;;;5079009;28;208020;-67
2022/11/02 10:12:27;;;;;;;;;;;12.60;99.90;;;;;;5113275;28;19931;-69
2022/11/02 10:15:01;;;;;;;;;;;12.70;99.90;;;;;;5055013;28;209917;-68
2022/11/02 10:17:29;;;;;;;;;;;12.70;99.90;;;;;;5109098;28;19919;-70
2022/11/02 10:19:56;;;;;;;;;;;12.70;99.90;;;;;;5069653;28;206977;-70
2022/11/02 10:22:25;;;;;;;;;;;12.70;99.90;;;;;;5088716;28;20049;-70
2022/11/02 10:24:52;;;;;;;;;;;12.80;99.90;;;;;;5052168;28;210748;-69
2022/11/02 10:27:20;;;;;;;;;;;12.80;99.90;;;;;;5099342;27;19915;-70
2022/11/02 10:29:48;;;;;;;;;;;12.80;99.90;;;;;;5085904;27;207090;-70
2022/11/02 10:32:14;;;;;;;;;;;13.00;99.90;;;;;;5122165;27;20300;-70
2022/11/02 10:34:42;;;;;;;;;;;13.10;99.90;;;;;;5095948;27;208000;-69
2022/11/02 10:37:14;;;;;;;;;;;13.10;99.90;;;;;;5078247;27;20288;-69
2022/11/02 10:39:49;;;;;;;;;;;13.10;99.90;;;;;;5096972;27;206535;-70
2022/11/02 10:42:27;;;;;;;;;;;13.20;99.90;;;;;;5029678;28;19924;-71
2022/11/02 10:45:28;;;;;;;;;;;13.20;99.90;;;;;;5039941;28;208040;-70
2022/11/02 10:48:00;;;;;;;;;;;13.30;99.90;;;;;;4999079;28;20421;-69
2022/11/02 10:50:26;;;;;;;;;;;13.30;99.90;;;;;;4971628;28;206562;-69
2022/11/02 10:52:52;;;;;;;;;;;13.30;99.90;;;;;;5018354;28;20126;-70
2022/11/02 10:55:23;;;;;;;;;;;13.30;99.90;;;;;;4975036;28;210727;-69
2022/11/02 10:57:50;;;;;;;;;;;13.30;99.90;;;;;;5027625;28;20581;-70
2022/11/02 11:00:31;;;;;;;;;;;13.30;99.90;;;;;;4972561;28;202181;-70
2022/11/02 11:03:06;;;;;;;;;;;13.30;99.90;;;;;;4998520;28;19921;-70
2022/11/02 11:05:33;;;;;;;;;;;13.30;99.90;;;;;;4956854;28;208677;-71
2022/11/02 11:07:59;;;;;;;;;;;13.40;99.90;;;;;;5015212;28;19925;-71
2022/11/02 11:10:26;;;;;;;;;;;13.50;99.90;;;;;;4966013;28;124036;-70
2022/11/02 11:12:53;;;;;;;;;;;13.60;99.90;;;;;;4984149;28;19925;-70
2022/11/02 11:15:23;;;;;;;;;;;13.60;99.90;;;;;;4953718;28;151003;-72
2022/11/02 11:17:49;;;;;;;;;;;13.60;99.90;;;;;;4987474;28;19925;-72
2022/11/02 11:20:33;;;;;;;;;;;13.60;99.90;;;;;;4940754;28;186076;-74
2022/11/02 11:23:11;;;;;;;;;;;13.60;99.90;;;;;;5105772;27;19919;-73
2022/11/02 11:25:38;;;;;;;;;;;13.70;99.90;;;;;;5054481;28;119612;-72
2022/11/02 11:28:19;;;;;;;;;;;13.80;99.90;;;;;;5105690;27;19927;-72
2022/11/02 11:30:48;;;;;;;;;;;13.80;99.90;;;;;;5042322;28;113884;-72
2022/11/02 11:33:15;;;;;;;;;;;13.90;99.90;;;;;;5112851;27;19920;-73
2022/11/02 11:35:46;;;;;;;;;;;13.80;99.90;;;;;;5059942;27;207084;-72
2022/11/02 11:38:18;;;;;;;;;;;13.80;99.90;;;;;;5104983;27;19924;-71
2022/11/02 11:40:45;;;;;;;;;;;13.80;99.90;;;;;;5067568;27;196727;-72
2022/11/02 11:43:14;;;;;;;;;;;13.90;99.90;;;;;;5118577;27;20307;-72
2022/11/02 11:45:52;;;;;;;;;;;13.90;99.90;;;;;;5061158;27;209019;-71
2022/11/02 11:48:30;;;;;;;;;;;13.90;99.90;;;;;;5101479;27;19919;-72
2022/11/02 11:50:56;;;;;;;;;;;14.70;99.90;;;;;;5064907;27;204926;-71
2022/11/02 11:53:25;;;;;;;;;;;16.00;99.90;;;;;;5109634;27;19920;-72
2022/11/02 11:55:57;;;;;;;;;;;16.40;99.50;;;;;;5067943;27;95217;-71
2022/11/02 11:58:24;;;;;;;;;;;17.40;98.90;;;;;;5108513;27;20311;-72
2022/11/02 12:01:10;;;;;;;;;;;17.90;97.40;;;;;;5054302;27;180828;-71
2022/11/02 12:03:55;;;;;;;;;;;17.80;96.80;;;;;;5095636;27;19930;-73
2022/11/02 12:06:21;;;;;;;;;;;17.40;97.30;;;;;;5049684;27;183901;-71
2022/11/02 12:09:06;;;;;;;;;;;18.10;97.40;;;;;;5109822;27;20014;-72
2022/11/02 12:11:38;;;;;;;;;;;18.70;97.30;;;;;;5059763;27;199539;-72
2022/11/02 12:14:07;;;;;;;;;;;19.40;96.60;;;;;;5107583;27;19923;-73
2022/11/02 12:16:41;;;;;;;;;;;19.30;96.10;;;;;;5055752;27;206988;-72
2022/11/02 12:19:26;;;;;;;;;;;19.10;95.10;;;;;;5091153;27;19931;-72
2022/11/02 12:21:55;;;;;;;;;;;18.90;94.80;;;;;;5055863;27;222018;-72
2022/11/02 12:24:21;;;;;;;;;;;18.90;95.80;;;;;;5124054;27;19927;-73
2022/11/02 12:26:50;;;;;;;;;;;17.80;96.10;;;;;;5062233;27;207774;-73
2022/11/02 12:29:35;;;;;;;;;;;17.50;96.10;;;;;;5122940;27;19919;-72
2022/11/02 12:32:07;;;;;;;;;;;16.50;96.80;;;;;;5024957;28;90421;-73
2022/11/02 12:34:40;;;;;;;;;;;16.60;97.60;;;;;;5088203;28;19931;-71
2022/11/02 12:37:11;;;;;;;;;;;16.20;98.40;;;;;;5050284;27;207022;-72
2022/11/02 12:39:54;;;;;;;;;;;16.30;98.30;;;;;;5108481;27;213784;-72
2022/11/02 12:42:20;;;;;;;;;;;17.40;98.40;;;;;;5033429;28;215940;-71
2022/11/02 12:44:57;;;;;;;;;;;17.20;97.90;;;;;;5034821;27;210115;-73
2022/11/02 12:47:29;;;;;;;;;;;16.50;98.00;;;;;;5115943;27;19924;-72
2022/11/02 12:50:16;;;;;;;;;;;15.90;99.00;;;;;;5038115;27;214850;-72
2022/11/02 12:52:53;;;;;;;;;;;16.60;97.70;;;;;;5052100;28;19936;-72
2022/11/02 12:55:23;;;;;;;;;;;17.20;98.50;;;;;;5011234;28;212492;-73
2022/11/02 12:57:51;;;;;;;;;;;17.60;98.20;;;;;;5059966;28;19950;-72
2022/11/02 13:00:20;;;;;;;;;;;18.40;96.90;;;;;;4992526;28;202594;-74
2022/11/02 13:02:54;;;;;;;;;;;18.20;96.70;;;;;;5050259;28;19920;-73
2022/11/02 13:05:25;;;;;;;;;;;18.80;97.00;;;;;;4996373;28;163326;-72
2022/11/02 13:07:54;;;;;;;;;;;18.40;96.40;;;;;;5044483;28;19924;-72
2022/11/02 13:10:37;;;;;;;;;;;17.30;96.40;;;;;;5002760;28;213623;-72
2022/11/02 13:13:04;;;;;;;;;;;16.40;97.40;;;;;;5041568;28;19927;-72
2022/11/02 13:15:31;;;;;;;;;;;15.80;98.00;;;;;;4997622;28;173248;-73
2022/11/02 13:18:21;;;;;;;;;;;17.20;97.50;;;;;;5062961;28;19928;-72
2022/11/02 13:20:52;;;;;;;;;;;18.10;96.70;;;;;;4951362;28;209235;-73
2022/11/02 13:23:20;;;;;;;;;;;19.10;95.70;;;;;;4998987;28;20390;-72
2022/11/02 13:25:48;;;;;;;;;;;19.70;95.40;;;;;;4952290;28;141403;-71
2022/11/02 13:28:17;;;;;;;;;;;20.40;94.80;;;;;;4998757;28;19921;-72
2022/11/02 13:30:43;;;;;;;;;;;20.80;93.60;;;;;;4971425;28;205885;-72
2022/11/02 13:33:17;;;;;;;;;;;20.60;93.40;;;;;;5012430;28;19925;-71
2022/11/02 13:35:45;;;;;;;;;;;20.70;93.80;;;;;;4968521;28;106423;-72
2022/11/02 13:38:22;;;;;;;;;;;20.90;93.60;;;;;;5004591;28;19921;-73
2022/11/02 13:40:53;;;;;;;;;;;20.50;92.40;;;;;;4964108;28;206651;-72
2022/11/02 13:43:19;;;;;;;;;;;20.40;93.40;;;;;;5012284;28;20355;-72
2022/11/02 13:45:54;;;;;;;;;;;20.50;93.10;;;;;;4977523;28;177098;-72
2022/11/02 13:48:26;;;;;;;;;;;19.60;92.90;;;;;;5041451;28;19924;-71
2022/11/02 13:50:54;;;;;;;;;;;18.50;92.90;;;;;;4981481;28;190142;-72
2022/11/02 13:53:26;;;;;;;;;;;17.40;94.80;;;;;;5025292;28;19932;-72
2022/11/02 13:55:54;;;;;;;;;;;16.70;95.70;;;;;;4974437;28;169599;-73
2022/11/02 13:58:22;;;;;;;;;;;16.10;96.60;;;;;;5082664;28;19923;-73
2022/11/02 14:00:49;;;;;;;;;;;15.60;97.50;;;;;;5044463;28;155330;-72
2022/11/02 14:03:17;;;;;;;;;;;15.30;98.20;;;;;;5109734;27;19927;-73
2022/11/02 14:05:57;;;;;;;;;;;15.80;99.20;;;;;;5002695;28;216665;-72
2022/11/02 14:08:32;;;;;;;;;;;16.70;98.00;;;;;;5083875;28;20280;-72
2022/11/02 14:11:22;;;;;;;;;;;16.90;97.70;;;;;;5039720;28;177686;-73
2022/11/02 14:13:51;;;;;;;;;;;16.60;97.60;;;;;;5088629;28;19935;-71
2022/11/02 14:16:35;;;;;;;;;;;16.00;98.60;;;;;;5029795;28;209508;-71
2022/11/02 14:19:17;;;;;;;;;;;15.70;99.30;;;;;;5086830;28;20288;-71
2022/11/02 14:21:52;;;;;;;;;;;15.60;99.70;;;;;;5062789;27;193932;-72
2022/11/02 14:24:33;;;;;;;;;;;15.40;99.80;;;;;;5109480;28;19919;-72
2022/11/02 14:26:59;;;;;;;;;;;15.20;99.90;;;;;;5065974;27;203602;-72
2022/11/02 14:29:46;;;;;;;;;;;15.10;99.90;;;;;;5105960;28;19924;-72
2022/11/02 14:32:15;;;;;;;;;;;14.90;99.90;;;;;;5029336;28;206050;-72
2022/11/02 14:34:41;;;;;;;;;;;14.70;99.90;;;;;;5079003;28;207401;-71
2022/11/02 14:37:20;;;;;;;;;;;14.60;99.90;;;;;;5063588;28;19985;-72